createdAt,value
2023-07-27T00:01:12.416Z,55.20
2023-07-27T00:03:39.564Z,57.42
2023-07-27T00:06:06.622Z,58.58
2023-07-27T00:08:33.625Z,59.69
2023-07-27T00:11:00.661Z,60.58
2023-07-27T00:13:27.737Z,60.30
2023-07-27T00:15:56.011Z,60.64
2023-07-27T00:18:23.146Z,61.26
2023-07-27T00:20:50.158Z,60.22
2023-07-27T00:23:17.189Z,60.58
2023-07-27T00:25:44.295Z,59.44
2023-07-27T00:28:11.376Z,59.04
2023-07-27T00:30:38.689Z,58.09
2023-07-27T00:33:05.960Z,58.22
2023-07-27T00:35:32.994Z,58.25
2023-07-27T00:38:00.837Z,57.83
2023-07-27T00:40:28.035Z,56.91
2023-07-27T00:42:55.109Z,56.78
2023-07-27T00:45:22.233Z,57.48
2023-07-27T00:47:49.640Z,57.26
2023-07-27T00:50:16.913Z,57.03
2023-07-27T00:52:44.827Z,56.99
2023-07-27T00:55:12.579Z,56.70
2023-07-27T00:57:40.320Z,56.91
2023-07-27T01:00:08.899Z,56.54
2023-07-27T01:02:36.142Z,56.29
2023-07-27T01:05:03.358Z,56.09
2023-07-27T01:07:31.052Z,56.41
2023-07-27T01:09:59.735Z,56.25
2023-07-27T01:12:39.263Z,56.53
2023-07-27T01:15:16.040Z,55.78
2023-07-27T01:17:54.216Z,56.04
2023-07-27T01:20:36.056Z,55.83
2023-07-27T01:23:25.316Z,56.02
2023-07-27T01:26:41.357Z,55.37
2023-07-27T01:29:23.593Z,54.95
2023-07-27T01:31:53.285Z,55.08
2023-07-27T01:34:30.756Z,55.16
2023-07-27T01:37:02.564Z,54.82
2023-07-27T01:39:33.586Z,55.30
2023-07-27T01:42:03.154Z,55.16
2023-07-27T01:44:33.001Z,55.97
2023-07-27T01:47:01.728Z,55.94
2023-07-27T01:49:30.765Z,56.60
2023-07-27T01:51:59.491Z,57.43
2023-07-27T01:54:30.343Z,58.10
2023-07-27T01:56:57.703Z,58.32
2023-07-27T01:59:25.714Z,58.31
2023-07-27T02:01:54.363Z,58.81
2023-07-27T02:04:22.006Z,59.17
2023-07-27T02:06:52.488Z,58.95
2023-07-27T02:09:20.142Z,58.99
2023-07-27T02:11:53.026Z,59.20
2023-07-27T02:14:33.255Z,59.11
2023-07-27T02:17:12.931Z,59.01
2023-07-27T02:20:02.714Z,58.86
2023-07-27T02:22:30.932Z,58.82
2023-07-27T02:24:58.350Z,59.10
2023-07-27T02:27:25.620Z,58.89
2023-07-27T02:29:52.734Z,57.96
2023-07-27T02:32:19.994Z,57.73
2023-07-27T02:34:46.983Z,57.57
2023-07-27T02:37:15.980Z,57.55
2023-07-27T02:39:43.013Z,56.87
2023-07-27T02:42:10.038Z,56.61
2023-07-27T02:44:37.007Z,56.81
2023-07-27T02:47:04.158Z,56.46
2023-07-27T02:49:31.886Z,56.95
2023-07-27T02:51:59.100Z,56.74
2023-07-27T02:54:26.389Z,56.49
2023-07-27T02:56:54.226Z,56.33
2023-07-27T02:59:27.927Z,56.13
2023-07-27T03:01:55.121Z,55.58
2023-07-27T03:04:27.876Z,55.36
2023-07-27T03:06:55.126Z,55.69
2023-07-27T03:09:24.330Z,55.40
2023-07-27T03:11:51.519Z,54.86
2023-07-27T03:14:18.641Z,55.10
2023-07-27T03:16:45.700Z,55.42
2023-07-27T03:19:12.851Z,55.36
2023-07-27T03:21:42.880Z,54.88
2023-07-27T03:24:10.195Z,54.43
2023-07-27T03:26:38.023Z,54.81
2023-07-27T03:29:05.205Z,54.52
2023-07-27T03:31:32.261Z,54.77
2023-07-27T03:33:59.378Z,54.30
2023-07-27T03:36:26.702Z,54.58
2023-07-27T03:38:53.909Z,54.30
2023-07-27T03:41:21.894Z,54.02
2023-07-27T03:43:49.241Z,53.73
2023-07-27T03:46:16.396Z,54.25
2023-07-27T03:48:43.476Z,54.64
2023-07-27T03:51:11.031Z,54.51
2023-07-27T03:53:39.669Z,54.22
2023-07-27T03:56:06.716Z,54.21
2023-07-27T03:58:33.751Z,54.53
2023-07-27T04:01:00.948Z,54.37
2023-07-27T04:03:28.125Z,54.61
2023-07-27T04:05:55.388Z,54.36
2023-07-27T04:08:22.441Z,53.59
2023-07-27T04:10:49.541Z,53.44
2023-07-27T04:13:16.658Z,52.98
2023-07-27T04:15:44.136Z,53.12
2023-07-27T04:18:11.438Z,52.77
2023-07-27T04:20:39.185Z,52.50
2023-07-27T04:23:07.196Z,52.26
2023-07-27T04:25:34.290Z,52.02
2023-07-27T04:28:01.357Z,51.88
2023-07-27T04:30:28.493Z,51.98
2023-07-27T04:32:55.547Z,52.07
2023-07-27T04:35:22.641Z,52.23
2023-07-27T04:37:49.716Z,52.21
2023-07-27T04:40:33.602Z,52.32
2023-07-27T04:43:00.547Z,52.13
2023-07-27T04:45:27.616Z,52.01
2023-07-27T04:47:54.644Z,52.21
2023-07-27T04:50:21.761Z,52.30
2023-07-27T04:52:49.052Z,52.44
2023-07-27T04:55:19.018Z,52.03
2023-07-27T04:57:46.804Z,51.84
2023-07-27T05:00:14.862Z,51.10
2023-07-27T05:02:42.425Z,51.80
2023-07-27T05:05:09.814Z,51.25
2023-07-27T05:07:36.875Z,50.53
2023-07-27T05:10:04.265Z,49.13
2023-07-27T05:12:33.267Z,47.23
2023-07-27T05:15:00.669Z,46.45
2023-07-27T05:17:28.676Z,45.87
2023-07-27T05:19:56.251Z,45.06
2023-07-27T05:22:23.402Z,44.61
2023-07-27T05:24:50.649Z,43.98
2023-07-27T05:27:17.744Z,43.19
2023-07-27T05:29:44.788Z,43.39
2023-07-27T05:32:12.033Z,43.66
2023-07-27T05:34:39.022Z,43.30
2023-07-27T05:37:06.073Z,42.59
2023-07-27T05:39:33.318Z,41.89
2023-07-27T05:42:00.334Z,41.96
2023-07-27T05:44:27.390Z,42.07
2023-07-27T05:46:56.938Z,41.65
2023-07-27T05:49:24.112Z,41.98
2023-07-27T05:51:51.122Z,41.90
2023-07-27T05:54:18.220Z,41.52
2023-07-27T05:56:45.232Z,40.98
2023-07-27T05:59:12.268Z,40.69
2023-07-27T06:01:39.324Z,40.68
2023-07-27T06:04:08.366Z,40.80
2023-07-27T06:06:37.025Z,40.99
2023-07-27T06:09:04.765Z,41.17
2023-07-27T06:11:31.862Z,40.99
2023-07-27T06:13:58.906Z,41.49
2023-07-27T06:16:27.597Z,41.60
2023-07-27T06:18:55.526Z,41.79
2023-07-27T06:21:22.557Z,41.34
2023-07-27T06:23:49.734Z,41.99
2023-07-27T06:26:16.865Z,42.44
2023-07-27T06:28:43.999Z,42.19
2023-07-27T06:31:11.110Z,42.55
2023-07-27T06:33:38.421Z,42.21
2023-07-27T06:36:08.354Z,41.96
2023-07-27T06:38:35.576Z,41.67
2023-07-27T06:41:02.803Z,41.87
2023-07-27T06:43:29.856Z,41.76
2023-07-27T06:45:57.147Z,42.17
2023-07-27T06:48:24.322Z,41.95
2023-07-27T06:50:51.385Z,41.60
2023-07-27T06:53:18.541Z,41.28
2023-07-27T06:55:45.595Z,41.02
2023-07-27T06:58:12.849Z,41.37
2023-07-27T07:00:40.206Z,40.76
2023-07-27T07:03:07.730Z,40.65
2023-07-27T07:05:34.847Z,40.80
2023-07-27T07:08:02.043Z,39.96
2023-07-27T07:10:29.276Z,40.11
2023-07-27T07:12:56.286Z,38.78
2023-07-27T07:15:23.329Z,38.92
2023-07-27T07:17:50.529Z,37.48
2023-07-27T07:20:17.772Z,37.21
2023-07-27T07:22:44.944Z,36.85
2023-07-27T07:25:12.123Z,37.10
2023-07-27T07:27:39.289Z,35.55
2023-07-27T07:30:07.269Z,35.70
2023-07-27T07:32:35.109Z,35.18
2023-07-27T07:35:03.465Z,35.82
2023-07-27T07:37:31.919Z,35.70
2023-07-27T07:39:59.187Z,35.29
2023-07-27T07:42:26.467Z,35.97
2023-07-27T07:44:53.957Z,35.69
2023-07-27T07:47:21.048Z,35.36
2023-07-27T07:49:52.299Z,35.30
2023-07-27T07:52:21.314Z,33.57
2023-07-27T07:54:49.052Z,34.35
2023-07-27T07:57:21.123Z,35.44
2023-07-27T07:59:48.433Z,34.71
2023-07-27T08:02:15.816Z,35.46
2023-07-27T08:04:42.853Z,36.13
2023-07-27T08:07:09.802Z,36.18
2023-07-27T08:49:55.004Z,38.70
2023-07-27T08:52:25.521Z,38.74
2023-07-27T08:54:52.594Z,38.79
2023-07-27T08:57:19.626Z,38.52
2023-07-27T08:59:49.424Z,38.80
2023-07-27T09:02:16.644Z,39.04
2023-07-27T09:04:43.954Z,39.16
2023-07-27T09:07:11.146Z,39.19
2023-07-27T09:09:38.649Z,39.65
2023-07-27T09:12:07.625Z,40.15
2023-07-27T09:14:39.447Z,40.26
2023-07-27T09:17:08.497Z,41.13
2023-07-27T09:19:40.196Z,41.12
2023-07-27T09:22:08.456Z,41.78
2023-07-27T09:24:36.375Z,41.40
2023-07-27T09:27:10.092Z,41.89
2023-07-27T09:29:38.924Z,42.45
2023-07-27T09:32:09.836Z,43.07
2023-07-27T09:34:37.154Z,43.77
2023-07-27T09:37:06.168Z,43.87
2023-07-27T09:39:37.483Z,43.05
2023-07-27T09:42:08.761Z,43.22
2023-07-27T09:44:49.020Z,42.29
2023-07-27T09:47:25.059Z,41.13
2023-07-27T09:49:53.571Z,40.75
2023-07-27T09:52:21.377Z,41.16
2023-07-27T09:54:49.767Z,40.92
2023-07-27T09:57:17.082Z,40.66
2023-07-27T09:59:45.294Z,40.96
2023-07-27T10:02:16.008Z,41.02
2023-07-27T10:04:53.373Z,41.21
2023-07-27T10:07:22.233Z,41.14
2023-07-27T10:10:09.587Z,42.27
2023-07-27T10:12:40.047Z,44.49
2023-07-27T10:15:29.962Z,45.32
2023-07-27T10:18:00.116Z,44.62
2023-07-27T10:20:30.846Z,43.28
2023-07-27T10:23:19.668Z,43.00
2023-07-27T10:26:05.214Z,42.73
2023-07-27T10:28:45.199Z,42.95
2023-07-27T10:31:15.171Z,43.01
2023-07-27T10:33:47.840Z,43.29
2023-07-27T10:36:16.190Z,42.97
2023-07-27T10:38:56.587Z,42.35
2023-07-27T10:41:25.599Z,42.19
2023-07-27T10:44:08.434Z,42.28
2023-07-27T10:46:39.977Z,41.16
2023-07-27T10:49:14.265Z,40.88
2023-07-27T10:51:42.229Z,40.64
2023-07-27T10:54:12.858Z,40.61
2023-07-27T10:56:42.133Z,39.86
2023-07-27T10:59:14.544Z,39.63
2023-07-27T11:01:42.793Z,39.06
2023-07-27T11:04:11.348Z,39.67
2023-07-27T11:06:44.218Z,39.08
2023-07-27T11:09:15.475Z,39.57
2023-07-27T11:11:42.959Z,40.04
2023-07-27T11:14:10.597Z,39.61
2023-07-27T11:16:38.864Z,40.01
2023-07-27T11:19:10.785Z,40.27
2023-07-27T11:21:40.843Z,40.51
2023-07-27T11:24:09.403Z,40.70
2023-07-27T11:26:37.860Z,40.23
2023-07-27T11:29:06.749Z,39.38
2023-07-27T11:31:34.298Z,39.62
2023-07-27T11:34:04.285Z,38.28
2023-07-27T11:36:33.910Z,37.09
2023-07-27T11:39:04.060Z,36.87
2023-07-27T11:41:47.687Z,34.36
2023-07-27T11:44:17.168Z,35.87
2023-07-27T11:46:48.916Z,36.36
2023-07-27T11:49:17.579Z,35.85
2023-07-27T11:51:46.489Z,37.09
2023-07-27T11:54:27.046Z,36.71
2023-07-27T11:56:56.218Z,36.34
2023-07-27T11:59:24.217Z,37.24
2023-07-27T12:01:52.897Z,36.82
2023-07-27T12:04:21.456Z,37.55
2023-07-27T12:06:49.445Z,37.51
2023-07-27T12:09:16.722Z,37.97
2023-07-27T12:11:45.428Z,37.68
2023-07-27T12:14:12.543Z,36.78
2023-07-27T12:21:44.753Z,34.66
2023-07-27T12:34:14.812Z,35.27
2023-07-27T12:39:24.484Z,33.72
2023-07-27T12:44:22.816Z,34.43
2023-07-27T12:46:50.463Z,34.37
2023-07-27T12:49:17.704Z,32.66
2023-07-27T12:51:44.801Z,32.69
2023-07-27T12:54:12.056Z,33.33
2023-07-27T12:56:39.058Z,32.94
2023-07-27T12:59:06.182Z,32.45
2023-07-27T13:01:33.499Z,32.38
2023-07-27T13:04:00.796Z,32.67
2023-07-27T13:06:28.149Z,33.57
2023-07-27T13:08:55.290Z,33.86
2023-07-27T13:11:22.776Z,33.46
2023-07-27T13:13:49.768Z,33.21
2023-07-27T13:16:16.859Z,33.18
2023-07-27T13:18:45.183Z,33.95
2023-07-27T13:21:12.252Z,34.12
2023-07-27T13:23:39.214Z,34.24
2023-07-27T13:26:07.817Z,33.61
2023-07-27T13:28:36.461Z,33.55
2023-07-27T13:31:03.609Z,32.23
2023-07-27T13:33:30.894Z,33.44
2023-07-27T13:35:58.263Z,33.95
2023-07-27T13:38:25.324Z,33.67
2023-07-27T13:40:52.539Z,33.34
2023-07-27T13:43:19.566Z,33.73
2023-07-27T13:45:49.184Z,33.48
2023-07-27T13:48:18.087Z,33.05
2023-07-27T13:50:45.433Z,33.88
2023-07-27T13:53:14.291Z,32.91
2023-07-27T13:55:41.679Z,33.50
2023-07-27T13:58:09.307Z,33.75
2023-07-27T14:00:36.417Z,33.67
2023-07-27T14:03:03.939Z,34.18
2023-07-27T14:05:32.625Z,34.25
2023-07-27T14:08:00.096Z,34.34
2023-07-27T14:10:27.428Z,34.92
2023-07-27T14:12:55.213Z,34.67
2023-07-27T14:15:22.727Z,34.70
2023-07-27T14:17:50.058Z,34.41
2023-07-27T14:20:17.323Z,34.34
2023-07-27T14:22:44.522Z,34.34
2023-07-27T14:25:11.728Z,34.30
2023-07-27T14:27:38.917Z,34.76
2023-07-27T14:30:06.817Z,34.88
2023-07-27T14:32:35.436Z,35.41
2023-07-27T14:35:04.431Z,34.90
2023-07-27T14:37:33.876Z,35.20
2023-07-27T14:40:01.390Z,35.03
2023-07-27T14:42:31.350Z,35.17
2023-07-27T14:44:58.566Z,34.61
2023-07-27T14:47:25.834Z,35.09
2023-07-27T14:52:23.006Z,34.08
2023-07-27T14:54:50.211Z,34.42
2023-07-27T14:57:17.327Z,34.78
2023-07-27T15:02:28.198Z,35.30
2023-07-27T15:04:55.681Z,35.32
2023-07-27T15:07:23.055Z,35.13
2023-07-27T15:09:51.514Z,34.95
2023-07-27T15:12:19.317Z,34.79
2023-07-27T15:14:47.517Z,35.43
2023-07-27T15:17:14.795Z,34.57
2023-07-27T15:19:42.646Z,33.79
2023-07-27T15:22:10.478Z,33.47
2023-07-27T15:24:37.595Z,31.12
2023-07-27T15:27:04.991Z,32.63
2023-07-27T15:29:32.068Z,33.00
2023-07-27T15:31:59.187Z,31.94
2023-07-27T15:34:26.343Z,33.11
2023-07-27T15:36:56.537Z,33.56
2023-07-27T15:39:23.781Z,35.08
2023-07-27T15:41:50.831Z,34.58
2023-07-27T15:44:17.864Z,34.84
2023-07-27T15:46:45.021Z,34.99
2023-07-27T15:49:12.037Z,33.10
2023-07-27T15:51:39.000Z,34.23
2023-07-27T15:54:06.091Z,34.28
2023-07-27T15:56:33.347Z,34.22
2023-07-27T15:59:00.684Z,34.92
2023-07-27T16:01:34.856Z,35.17
2023-07-27T16:04:01.962Z,35.31
2023-07-27T16:06:29.046Z,35.71
2023-07-27T16:08:56.188Z,37.14
2023-07-27T16:11:23.250Z,37.18
2023-07-27T16:13:50.483Z,37.54
2023-07-27T16:16:17.523Z,36.53
2023-07-27T16:18:44.682Z,36.75
2023-07-27T16:21:14.754Z,36.90
2023-07-27T16:23:41.792Z,37.02
2023-07-27T16:26:08.850Z,36.62
2023-07-27T16:28:36.921Z,37.05
2023-07-27T16:31:07.415Z,37.06
2023-07-27T16:33:34.649Z,37.30
2023-07-27T16:36:02.393Z,36.59
2023-07-27T16:38:30.059Z,36.91
2023-07-27T16:40:57.071Z,37.01
2023-07-27T16:43:24.050Z,37.24
2023-07-27T16:45:51.239Z,37.01
2023-07-27T16:48:18.405Z,37.69
2023-07-27T16:50:45.955Z,37.92
2023-07-27T16:53:13.971Z,37.83
2023-07-27T16:55:42.315Z,38.46
2023-07-27T16:58:09.398Z,38.16
2023-07-27T17:00:36.699Z,38.43
2023-07-27T17:03:04.672Z,38.59
2023-07-27T17:05:39.101Z,38.34
2023-07-27T17:08:07.062Z,38.58
2023-07-27T17:10:34.328Z,38.62
2023-07-27T17:13:01.402Z,39.34
2023-07-27T17:15:28.575Z,39.17
2023-07-27T17:17:55.684Z,39.20
2023-07-27T17:20:22.956Z,39.64
2023-07-27T17:22:50.147Z,39.44
2023-07-27T17:25:17.140Z,39.67
2023-07-27T17:27:44.521Z,40.07
2023-07-27T17:30:13.130Z,40.23
2023-07-27T17:32:42.046Z,40.04
2023-07-27T17:35:10.788Z,39.72
2023-07-27T17:37:37.891Z,40.20
2023-07-27T17:40:05.581Z,40.27
2023-07-27T17:42:32.743Z,40.49
2023-07-27T17:44:59.727Z,40.28
2023-07-27T17:47:26.849Z,40.53
2023-07-27T17:49:53.895Z,40.32
2023-07-27T17:52:21.508Z,40.04
2023-07-27T17:54:48.581Z,40.18
2023-07-27T17:57:15.586Z,39.87
2023-07-27T17:59:43.189Z,40.18
2023-07-27T18:02:10.801Z,39.98
2023-07-27T18:04:37.974Z,39.90
2023-07-27T18:07:05.305Z,40.23
2023-07-27T18:09:34.766Z,39.87
2023-07-27T18:12:01.841Z,40.58
2023-07-27T18:14:29.346Z,40.69
2023-07-27T18:16:57.474Z,40.80
2023-07-27T18:19:24.642Z,40.75
2023-07-27T18:21:51.793Z,40.60
2023-07-27T18:24:27.638Z,40.86
2023-07-27T18:26:55.702Z,40.59
2023-07-27T18:29:22.784Z,41.15
2023-07-27T18:31:50.480Z,40.81
2023-07-27T18:34:17.903Z,40.86
2023-07-27T18:36:44.924Z,41.19
2023-07-27T18:39:12.029Z,41.40
2023-07-27T18:41:39.116Z,41.65
2023-07-27T18:44:07.787Z,41.58
2023-07-27T18:46:35.174Z,41.67
2023-07-27T18:49:02.425Z,41.57
2023-07-27T18:51:29.519Z,41.86
2023-07-27T18:53:56.592Z,41.83
2023-07-27T18:56:23.767Z,42.20
2023-07-27T18:58:50.770Z,42.24
2023-07-27T19:01:17.796Z,42.22
2023-07-27T19:03:45.495Z,42.39
2023-07-27T19:06:13.754Z,42.09
2023-07-27T19:08:41.249Z,42.38
2023-07-27T19:11:09.415Z,42.63
2023-07-27T19:13:37.372Z,42.72
2023-07-27T19:16:08.140Z,42.61
2023-07-27T19:18:35.330Z,42.71
2023-07-27T19:21:03.091Z,42.61
2023-07-27T19:23:30.100Z,42.63
2023-07-27T19:25:57.120Z,42.77
2023-07-27T19:28:25.135Z,42.47
2023-07-27T19:30:52.215Z,42.59
2023-07-27T19:33:19.489Z,42.45
2023-07-27T19:35:46.753Z,42.27
2023-07-27T19:38:14.814Z,42.27
2023-07-27T19:40:42.852Z,42.27
2023-07-27T19:43:10.087Z,42.82
2023-07-27T19:45:37.131Z,43.03
2023-07-27T19:48:04.531Z,42.72
2023-07-27T19:50:31.681Z,43.07
2023-07-27T19:52:58.786Z,43.34
2023-07-27T19:55:25.803Z,43.18
2023-07-27T19:57:52.792Z,43.24
2023-07-27T20:00:19.917Z,43.18
2023-07-27T20:02:49.292Z,43.28
2023-07-27T20:05:16.636Z,42.78
2023-07-27T20:07:43.747Z,42.52
2023-07-27T20:10:11.298Z,42.50
2023-07-27T20:12:38.327Z,42.76
2023-07-27T20:15:05.818Z,43.07
2023-07-27T20:17:33.044Z,42.99
2023-07-27T20:20:00.713Z,43.21
2023-07-27T20:22:28.030Z,43.37
2023-07-27T20:24:55.076Z,42.73
2023-07-27T20:27:22.041Z,43.30
2023-07-27T20:29:49.096Z,43.10
2023-07-27T20:32:16.213Z,43.00
2023-07-27T20:34:43.303Z,43.27
2023-07-27T20:37:10.500Z,43.01
2023-07-27T20:39:37.645Z,43.34
2023-07-27T20:42:05.598Z,43.58
2023-07-27T20:44:32.711Z,43.84
2023-07-27T20:46:59.793Z,43.60
2023-07-27T20:49:27.910Z,43.21
2023-07-27T20:51:55.501Z,43.30
2023-07-27T20:54:22.412Z,43.63
2023-07-27T20:56:49.391Z,43.45
2023-07-27T20:59:16.517Z,43.46
2023-07-27T21:01:43.629Z,43.39
2023-07-27T21:04:10.866Z,43.94
2023-07-27T21:06:41.100Z,43.89
2023-07-27T21:09:08.262Z,44.11
2023-07-27T21:11:35.287Z,43.81
2023-07-27T21:14:02.380Z,43.73
2023-07-27T21:16:31.876Z,43.91
2023-07-27T21:18:58.949Z,43.91
2023-07-27T21:21:25.917Z,43.96
2023-07-27T21:23:52.972Z,43.99
2023-07-27T21:26:20.382Z,44.18
2023-07-27T21:28:47.792Z,44.23
2023-07-27T21:31:15.192Z,43.91
2023-07-27T21:33:43.150Z,43.79
2023-07-27T21:36:11.508Z,43.60
2023-07-27T21:38:38.582Z,43.34
2023-07-27T21:41:09.632Z,43.14
2023-07-27T21:43:38.967Z,43.47
2023-07-27T21:46:06.838Z,43.63
2023-07-27T21:48:33.975Z,43.57
2023-07-27T21:51:01.095Z,43.38
2023-07-27T21:53:28.186Z,43.65
2023-07-27T21:55:55.402Z,43.52
2023-07-27T21:58:22.793Z,43.47
2023-07-27T22:00:49.796Z,43.46
2023-07-27T22:03:16.879Z,43.53
2023-07-27T22:05:45.657Z,43.79
2023-07-27T22:08:12.708Z,43.74
2023-07-27T22:10:40.948Z,43.22
2023-07-27T22:13:07.980Z,43.54
2023-07-27T22:15:35.072Z,43.60
2023-07-27T22:18:02.181Z,43.51
2023-07-27T22:20:29.341Z,43.61
2023-07-27T22:22:56.448Z,43.45
2023-07-27T22:25:23.573Z,43.62
2023-07-27T22:27:50.708Z,43.65
2023-07-27T22:30:17.860Z,43.55
2023-07-27T22:32:44.973Z,43.41
2023-07-27T22:35:12.094Z,43.86
2023-07-27T22:37:39.438Z,43.51
2023-07-27T22:40:07.263Z,44.15
2023-07-27T22:42:34.231Z,43.99
2023-07-27T22:45:03.132Z,43.85
2023-07-27T22:47:32.671Z,44.57
2023-07-27T22:49:59.724Z,44.98
2023-07-27T22:52:27.534Z,45.41
2023-07-27T22:54:54.709Z,45.50
2023-07-27T22:57:22.051Z,45.96
2023-07-27T22:59:53.209Z,46.00
2023-07-27T23:02:20.338Z,48.05
2023-07-27T23:04:47.830Z,47.86
2023-07-27T23:07:14.899Z,47.49
2023-07-27T23:09:41.909Z,47.40
2023-07-27T23:12:09.236Z,47.22
2023-07-27T23:14:37.190Z,47.48
2023-07-27T23:17:04.642Z,47.96
2023-07-27T23:19:31.646Z,48.40
2023-07-27T23:21:58.653Z,47.68
2023-07-27T23:24:25.676Z,47.86
2023-07-27T23:26:52.675Z,47.61
2023-07-27T23:29:19.680Z,47.88
2023-07-27T23:31:46.741Z,47.73
2023-07-27T23:34:13.765Z,47.42
2023-07-27T23:36:40.780Z,47.39
2023-07-27T23:39:07.782Z,47.20
2023-07-27T23:41:34.809Z,46.96
2023-07-27T23:44:01.826Z,47.49
2023-07-27T23:46:28.936Z,47.29
2023-07-27T23:48:56.073Z,47.48
2023-07-27T23:51:23.059Z,47.83
2023-07-27T23:53:50.094Z,47.85
2023-07-27T23:56:17.425Z,47.45
2023-07-27T23:58:44.473Z,47.45
